createdAt,value
2017-04-11T00:00:44.240Z,55.80
2017-04-11T00:01:42.627Z,55.80
2017-04-11T00:02:41.416Z,55.80
2017-04-11T00:03:39.859Z,55.80
2017-04-11T00:04:38.254Z,55.70
2017-04-11T00:05:37.043Z,55.70
2017-04-11T00:06:36.247Z,56.30
2017-04-11T00:07:34.644Z,55.80
2017-04-11T00:08:33.789Z,55.60
2017-04-11T00:09:32.203Z,55.60
2017-04-11T00:10:31.419Z,55.60
2017-04-11T00:11:29.951Z,55.70
2017-04-11T00:12:33.851Z,55.40
2017-04-11T00:13:33.046Z,55.70
2017-04-11T00:14:32.191Z,55.80
2017-04-11T00:15:30.652Z,55.90
2017-04-11T00:16:29.514Z,55.80
2017-04-11T00:17:28.026Z,55.60
2017-04-11T00:18:26.489Z,55.60
2017-04-11T00:19:24.964Z,55.70
2017-04-11T00:20:23.398Z,55.50
2017-04-11T00:21:21.801Z,55.50
2017-04-11T00:22:21.210Z,55.40
2017-04-11T00:23:19.575Z,55.40
2017-04-11T00:24:17.998Z,55.40
2017-04-11T00:25:17.089Z,55.60
2017-04-11T00:26:15.517Z,55.60
2017-04-11T00:27:14.657Z,55.50
2017-04-11T00:28:13.031Z,55.60
2017-04-11T00:29:11.414Z,55.40
2017-04-11T00:30:09.821Z,55.60
2017-04-11T00:31:09.050Z,55.60
2017-04-11T00:32:07.485Z,55.50
2017-04-11T00:33:05.905Z,55.40
2017-04-11T00:34:04.315Z,55.30
2017-04-11T00:35:03.528Z,55.40
2017-04-11T00:36:01.911Z,55.50
2017-04-11T00:37:00.948Z,55.40
2017-04-11T00:38:00.169Z,55.40
2017-04-11T00:38:58.565Z,55.50
2017-04-11T00:39:56.952Z,55.50
2017-04-11T00:40:55.324Z,55.60
2017-04-11T00:41:53.749Z,55.80
2017-04-11T00:42:52.564Z,55.90
2017-04-11T00:43:50.964Z,55.90
2017-04-11T00:44:50.087Z,55.80
2017-04-11T00:45:48.470Z,55.80
2017-04-11T00:46:46.880Z,55.80
2017-04-11T00:47:45.964Z,55.80
2017-04-11T00:48:45.511Z,55.80
2017-04-11T00:49:43.941Z,56.00
2017-04-11T00:50:43.059Z,56.00
2017-04-11T00:51:41.503Z,56.00
2017-04-11T00:52:40.668Z,56.00
2017-04-11T00:53:40.432Z,56.50
2017-04-11T00:54:38.926Z,56.20
2017-04-11T00:55:37.355Z,56.40
2017-04-11T00:56:35.791Z,56.40
2017-04-11T00:57:34.919Z,56.20
2017-04-11T00:58:33.308Z,56.30
2017-04-11T00:59:31.678Z,56.20
2017-04-11T01:00:30.462Z,56.20
2017-04-11T01:01:28.933Z,56.30
2017-04-11T01:02:27.329Z,56.40
2017-04-11T01:03:26.462Z,56.30
2017-04-11T01:04:24.858Z,56.10
2017-04-11T01:05:23.290Z,56.00
2017-04-11T01:06:21.819Z,55.70
2017-04-11T01:07:20.956Z,55.60
2017-04-11T01:08:19.410Z,55.70
2017-04-11T01:09:17.822Z,55.80
2017-04-11T01:10:17.235Z,55.90
2017-04-11T01:11:15.719Z,55.90
2017-04-11T01:12:15.256Z,56.00
2017-04-11T01:13:13.626Z,56.10
2017-04-11T01:14:12.040Z,56.00
2017-04-11T01:15:10.411Z,56.00
2017-04-11T01:16:09.558Z,56.10
2017-04-11T01:17:07.980Z,56.30
2017-04-11T01:18:07.292Z,56.40
2017-04-11T01:19:05.732Z,56.60
2017-04-11T01:20:04.819Z,56.70
2017-04-11T01:21:04.302Z,57.20
2017-04-11T01:22:02.708Z,56.60
2017-04-11T01:23:01.109Z,56.60
2017-04-11T01:23:59.555Z,56.70
2017-04-11T01:24:58.010Z,56.80
2017-04-11T01:25:56.443Z,57.00
2017-04-11T01:26:54.794Z,57.00
2017-04-11T01:27:53.174Z,57.00
2017-04-11T01:28:51.573Z,57.10
2017-04-11T01:29:50.826Z,57.10
2017-04-11T01:30:49.202Z,57.00
2017-04-11T01:31:47.589Z,56.90
2017-04-11T01:32:46.723Z,57.00
2017-04-11T01:33:45.179Z,56.90
2017-04-11T01:34:45.831Z,57.10
2017-04-11T01:35:44.334Z,56.90
2017-04-11T01:36:42.787Z,56.90
2017-04-11T01:37:41.244Z,56.90
2017-04-11T01:38:39.991Z,57.10
2017-04-11T01:39:38.746Z,57.00
2017-04-11T01:40:37.913Z,56.90
2017-04-11T01:41:37.281Z,56.80
2017-04-11T01:42:35.736Z,56.60
2017-04-11T01:43:34.168Z,56.70
2017-04-11T01:44:33.968Z,56.70
2017-04-11T01:45:33.472Z,56.60
2017-04-11T01:46:31.872Z,57.30
2017-04-11T01:47:31.201Z,56.60
2017-04-11T01:48:29.574Z,56.50
2017-04-11T01:49:28.699Z,56.40
2017-04-11T01:50:27.681Z,56.40
2017-04-11T01:51:26.044Z,57.20
2017-04-11T01:52:24.454Z,56.70
2017-04-11T01:53:24.725Z,56.40
2017-04-11T01:54:23.135Z,56.40
2017-04-11T01:55:21.606Z,56.90
2017-04-11T01:56:19.982Z,56.40
2017-04-11T01:57:18.386Z,56.20
2017-04-11T01:58:17.531Z,56.30
2017-04-11T01:59:15.951Z,56.50
2017-04-11T02:00:14.801Z,56.70
2017-04-11T02:01:13.290Z,56.80
2017-04-11T02:02:14.558Z,56.90
2017-04-11T02:03:14.006Z,57.00
2017-04-11T02:04:12.403Z,57.10
2017-04-11T02:05:10.833Z,57.20
2017-04-11T02:06:09.214Z,57.00
2017-04-11T02:07:08.408Z,56.90
2017-04-11T02:08:07.539Z,57.10
2017-04-11T02:09:05.935Z,57.40
2017-04-11T02:10:04.381Z,57.60
2017-04-11T02:11:02.892Z,57.30
2017-04-11T02:12:01.341Z,57.10
2017-04-11T02:12:59.755Z,57.00
2017-04-11T02:13:58.916Z,57.20
2017-04-11T02:14:57.318Z,57.30
2017-04-11T02:15:55.709Z,57.40
2017-04-11T02:16:54.153Z,57.40
2017-04-11T02:17:52.600Z,58.20
2017-04-11T02:18:50.941Z,57.50
2017-04-11T02:19:49.346Z,57.40
2017-04-11T02:20:48.506Z,57.60
2017-04-11T02:21:47.615Z,57.50
2017-04-11T02:22:46.772Z,57.40
2017-04-11T02:23:45.201Z,57.30
2017-04-11T02:24:43.590Z,57.30
2017-04-11T02:25:41.958Z,57.30
2017-04-11T02:26:41.143Z,57.40
2017-04-11T02:27:40.050Z,57.60
2017-04-11T02:29:38.239Z,57.70
2017-04-11T02:30:36.643Z,57.70
2017-04-11T02:31:35.077Z,57.60
2017-04-11T02:32:33.468Z,57.70
2017-04-11T02:33:32.726Z,57.70
2017-04-11T02:34:31.298Z,57.70
2017-04-11T02:35:29.683Z,57.90
2017-04-11T02:36:28.823Z,57.70
2017-04-11T02:37:27.339Z,57.90
2017-04-11T02:38:26.505Z,57.90
2017-04-11T02:39:25.660Z,57.90
2017-04-11T02:40:24.135Z,57.90
2017-04-11T02:41:22.571Z,57.70
2017-04-11T02:42:22.536Z,57.80
2017-04-11T02:43:21.665Z,57.70
2017-04-11T02:44:20.777Z,58.00
2017-04-11T02:45:20.144Z,58.10
2017-04-11T02:46:19.367Z,58.00
2017-04-11T02:47:17.722Z,58.10
2017-04-11T02:48:16.947Z,58.00
2017-04-11T02:49:15.349Z,58.00
2017-04-11T02:50:14.506Z,58.10
2017-04-11T02:51:12.897Z,58.10
2017-04-11T02:52:12.151Z,58.20
2017-04-11T02:53:10.547Z,58.20
2017-04-11T02:54:08.931Z,58.80
2017-04-11T02:55:08.097Z,58.20
2017-04-11T02:56:06.489Z,58.50
2017-04-11T02:57:08.195Z,58.80
2017-04-11T02:58:06.597Z,58.80
2017-04-11T02:59:05.729Z,59.30
2017-04-11T03:00:04.150Z,58.70
2017-04-11T03:01:03.297Z,58.70
2017-04-11T03:02:01.698Z,58.30
2017-04-11T03:03:00.090Z,58.10
2017-04-11T03:03:59.875Z,57.90
2017-04-11T03:04:59.038Z,58.50
2017-04-11T03:05:57.498Z,58.20
2017-04-11T03:06:55.879Z,58.30
2017-04-11T03:08:54.392Z,58.20
2017-04-11T03:09:53.588Z,58.60
2017-04-11T03:10:51.957Z,58.70
2017-04-11T03:11:51.075Z,58.50
2017-04-11T03:12:49.486Z,58.70
2017-04-11T03:13:47.886Z,58.60
2017-04-11T03:14:46.285Z,58.50
2017-04-11T03:15:44.727Z,58.30
2017-04-11T03:16:44.126Z,58.30
2017-04-11T03:17:42.532Z,58.20
2017-04-11T03:18:41.234Z,58.20
2017-04-11T03:19:40.667Z,58.30
2017-04-11T03:20:39.063Z,58.30
2017-04-11T03:21:37.475Z,58.30
2017-04-11T03:22:36.629Z,58.40
2017-04-11T03:23:35.040Z,58.50
2017-04-11T03:24:34.160Z,58.50
2017-04-11T03:25:32.566Z,58.50
2017-04-11T03:26:30.938Z,58.50
2017-04-11T03:27:29.389Z,58.50
2017-04-11T03:28:27.812Z,58.20
2017-04-11T03:29:26.207Z,58.00
2017-04-11T03:30:24.621Z,57.80
2017-04-11T03:31:23.330Z,57.90
2017-04-11T03:32:21.740Z,58.10
2017-04-11T03:33:20.154Z,57.80
2017-04-11T03:34:19.301Z,57.70
2017-04-11T03:35:17.702Z,57.90
2017-04-11T03:36:16.869Z,58.10
2017-04-11T03:37:16.041Z,58.00
2017-04-11T03:38:14.422Z,57.80
2017-04-11T03:39:12.795Z,57.50
2017-04-11T03:40:12.030Z,57.60
2017-04-11T03:41:10.423Z,57.80
2017-04-11T03:42:08.869Z,57.70
2017-04-11T03:43:07.345Z,57.70
2017-04-11T03:44:05.745Z,57.70
2017-04-11T03:45:04.123Z,57.80
2017-04-11T03:46:03.863Z,57.90
2017-04-11T03:47:02.991Z,57.90
2017-04-11T03:48:02.115Z,57.90
2017-04-11T03:49:01.226Z,57.90
2017-04-11T03:49:59.606Z,58.50
2017-04-11T03:50:57.994Z,58.00
2017-04-11T03:51:56.413Z,58.10
2017-04-11T03:52:55.560Z,58.20
2017-04-11T03:53:54.738Z,58.10
2017-04-11T03:54:53.116Z,58.30
2017-04-11T03:55:51.535Z,58.20
2017-04-11T03:56:50.691Z,58.40
2017-04-11T03:57:49.111Z,58.50
2017-04-11T03:58:47.480Z,58.50
2017-04-11T03:59:45.842Z,58.60
2017-04-11T04:00:44.252Z,58.60
2017-04-11T04:01:42.630Z,58.50
2017-04-11T04:02:41.036Z,58.50
2017-04-11T04:03:40.522Z,58.70
2017-04-11T04:04:39.649Z,58.90
2017-04-11T04:05:38.038Z,59.10
2017-04-11T04:06:36.437Z,59.10
2017-04-11T04:07:34.807Z,59.10
2017-04-11T04:08:33.985Z,59.30
2017-04-11T04:09:34.720Z,59.40
2017-04-11T04:10:33.855Z,59.40
2017-04-11T04:11:32.257Z,59.40
2017-04-11T04:12:30.631Z,59.50
2017-04-11T04:13:29.013Z,59.50
2017-04-11T04:14:27.465Z,59.50
2017-04-11T04:15:25.895Z,59.20
2017-04-11T04:16:24.346Z,59.30
2017-04-11T04:17:22.727Z,59.10
2017-04-11T04:18:21.143Z,59.20
2017-04-11T04:19:19.529Z,59.40
2017-04-11T04:20:18.679Z,59.50
2017-04-11T04:21:17.117Z,59.50
2017-04-11T04:22:15.490Z,59.50
2017-04-11T04:23:13.907Z,59.50
2017-04-11T04:24:12.350Z,59.60
2017-04-11T04:25:10.744Z,59.60
2017-04-11T04:26:09.127Z,59.60
2017-04-11T04:27:08.262Z,59.60
2017-04-11T04:28:07.255Z,59.50
2017-04-11T04:29:05.668Z,59.70
2017-04-11T04:30:05.789Z,60.10
2017-04-11T04:31:04.979Z,59.90
2017-04-11T04:32:04.119Z,60.00
2017-04-11T04:33:02.521Z,59.90
2017-04-11T04:34:01.671Z,59.70
2017-04-11T04:35:00.103Z,60.00
2017-04-11T04:35:58.505Z,60.00
2017-04-11T04:36:58.630Z,60.00
2017-04-11T04:37:57.636Z,60.00
2017-04-11T04:38:56.810Z,60.10
2017-04-11T04:39:55.190Z,60.10
2017-04-11T04:40:54.351Z,60.00
2017-04-11T04:41:52.756Z,59.90
2017-04-11T04:42:51.903Z,59.70
2017-04-11T04:43:50.263Z,59.90
2017-04-11T04:44:48.648Z,60.00
2017-04-11T04:45:47.063Z,60.20
2017-04-11T04:46:45.771Z,60.40
2017-04-11T04:47:44.199Z,60.60
2017-04-11T04:48:43.331Z,60.60
2017-04-11T04:49:41.736Z,60.50
2017-04-11T04:50:41.323Z,60.50
2017-04-11T04:51:39.791Z,60.70
2017-04-11T04:52:38.363Z,60.20
2017-04-11T04:53:37.495Z,60.20
2017-04-11T04:54:35.851Z,60.70
2017-04-11T04:55:35.547Z,60.40
2017-04-11T04:56:34.720Z,60.50
2017-04-11T04:57:33.870Z,60.80
2017-04-11T04:58:32.235Z,60.10
2017-04-11T04:59:30.947Z,60.00
2017-04-11T05:00:29.367Z,60.00
2017-04-11T05:01:28.124Z,60.10
2017-04-11T05:02:26.575Z,60.30
2017-04-11T05:03:25.722Z,59.70
2017-04-11T05:04:24.121Z,59.80
2017-04-11T05:05:22.518Z,59.80
2017-04-11T05:06:21.000Z,60.00
2017-04-11T05:07:19.428Z,59.80
2017-04-11T05:08:17.866Z,59.90
2017-04-11T05:09:16.287Z,59.90
2017-04-11T05:10:15.447Z,60.00
2017-04-11T05:11:13.944Z,60.20
2017-04-11T05:12:13.107Z,60.30
2017-04-11T05:13:11.488Z,60.30
2017-04-11T05:14:09.896Z,60.50
2017-04-11T05:15:08.649Z,60.60
2017-04-11T05:16:07.072Z,60.80
2017-04-11T05:17:05.613Z,60.80
2017-04-11T05:18:04.003Z,60.80
2017-04-11T05:19:02.435Z,60.90
2017-04-11T05:20:00.871Z,61.00
2017-04-11T05:20:59.295Z,60.90
2017-04-11T05:21:57.690Z,60.80
2017-04-11T05:22:56.101Z,60.80
2017-04-11T05:23:55.246Z,60.90
2017-04-11T05:24:53.804Z,60.90
2017-04-11T05:25:52.255Z,60.70
2017-04-11T05:26:50.656Z,60.90
2017-04-11T05:27:49.045Z,60.70
2017-04-11T05:28:47.432Z,60.90
2017-04-11T05:29:46.577Z,61.00
2017-04-11T05:30:45.048Z,60.50
2017-04-11T05:31:43.446Z,60.60
2017-04-11T05:32:41.979Z,60.40
2017-04-11T05:33:40.445Z,60.50
2017-04-11T05:34:38.866Z,60.10
2017-04-11T05:35:38.422Z,60.00
2017-04-11T05:36:36.832Z,59.80
2017-04-11T05:37:35.196Z,59.90
2017-04-11T05:38:33.587Z,59.90
2017-04-11T05:39:32.831Z,59.90
2017-04-11T05:40:31.187Z,59.70
2017-04-11T05:41:29.567Z,59.70
2017-04-11T05:42:28.031Z,59.60
2017-04-11T05:43:26.457Z,59.70
2017-04-11T05:44:24.853Z,59.70
2017-04-11T05:45:23.223Z,59.60
2017-04-11T05:46:21.635Z,59.10
2017-04-11T05:47:20.101Z,59.30
2017-04-11T05:48:18.620Z,59.30
2017-04-11T05:49:17.055Z,59.30
2017-04-11T05:50:15.432Z,59.30
2017-04-11T05:51:14.549Z,59.40
2017-04-11T05:52:13.010Z,59.30
2017-04-11T05:53:11.447Z,59.00
2017-04-11T05:54:10.621Z,59.40
2017-04-11T05:55:09.086Z,59.20
2017-04-11T05:56:07.597Z,59.00
2017-04-11T05:57:06.736Z,58.90
2017-04-11T05:58:05.122Z,59.00
2017-04-11T05:59:03.517Z,58.90
2017-04-11T06:00:02.655Z,59.00
2017-04-11T06:01:01.413Z,59.00
2017-04-11T06:01:59.888Z,59.00
2017-04-11T06:02:58.249Z,58.90
2017-04-11T06:03:56.654Z,58.90
2017-04-11T06:04:55.377Z,59.00
2017-04-11T06:05:53.787Z,58.90
2017-04-11T06:06:52.279Z,58.80
2017-04-11T06:07:53.458Z,58.90
2017-04-11T06:08:51.897Z,58.90
2017-04-11T06:09:52.840Z,59.00
2017-04-11T06:10:51.229Z,58.70
2017-04-11T06:11:49.612Z,58.80
2017-04-11T06:12:48.503Z,58.80
2017-04-11T06:13:46.951Z,58.30
2017-04-11T06:14:45.379Z,57.80
2017-04-11T06:15:44.515Z,57.70
2017-04-11T06:16:42.913Z,57.70
2017-04-11T06:17:41.924Z,57.90
2017-04-11T06:18:41.075Z,57.90
2017-04-11T06:19:39.497Z,57.90
2017-04-11T06:20:37.971Z,57.50
2017-04-11T06:21:36.390Z,57.20
2017-04-11T06:22:34.846Z,57.10
2017-04-11T06:23:33.220Z,57.20
2017-04-11T06:24:31.674Z,57.00
2017-04-11T06:25:30.068Z,56.70
2017-04-11T06:26:28.506Z,56.00
2017-04-11T06:27:26.908Z,55.50
2017-04-11T06:28:25.291Z,55.40
2017-04-11T06:29:24.254Z,55.10
2017-04-11T06:30:22.633Z,55.60
2017-04-11T06:31:21.025Z,55.30
2017-04-11T06:32:20.188Z,54.50
2017-04-11T06:33:18.610Z,54.60
2017-04-11T06:34:16.988Z,54.50
2017-04-11T06:35:15.443Z,54.80
2017-04-11T06:36:14.681Z,55.00
2017-04-11T06:37:13.101Z,55.20
2017-04-11T06:38:11.558Z,55.10
2017-04-11T06:39:10.680Z,55.00
2017-04-11T06:40:09.143Z,54.90
2017-04-11T06:41:07.548Z,54.80
2017-04-11T06:42:05.934Z,54.70
2017-04-11T06:43:04.334Z,54.80
2017-04-11T06:44:02.756Z,54.40
2017-04-11T06:45:01.147Z,54.50
2017-04-11T06:46:00.899Z,54.20
2017-04-11T06:46:59.344Z,54.30
2017-04-11T06:47:57.744Z,54.80
2017-04-11T06:48:56.129Z,54.00
2017-04-11T06:49:54.557Z,53.90
2017-04-11T06:50:52.976Z,54.00
2017-04-11T06:51:51.351Z,54.10
2017-04-11T06:52:49.759Z,53.90
2017-04-11T06:53:48.177Z,54.00
2017-04-11T06:54:46.901Z,54.00
2017-04-11T06:55:45.980Z,54.00
2017-04-11T06:56:44.394Z,53.50
2017-04-11T06:58:24.315Z,53.20
2017-04-11T06:59:23.114Z,52.90
2017-04-11T07:00:21.482Z,53.00
2017-04-11T07:01:19.916Z,51.80
2017-04-11T07:02:18.337Z,52.60
2017-04-11T07:03:17.741Z,52.90
2017-04-11T07:04:16.122Z,53.00
2017-04-11T07:05:15.235Z,52.80
2017-04-11T07:06:14.086Z,52.70
2017-04-11T07:07:12.521Z,52.80
2017-04-11T07:08:10.916Z,52.60
2017-04-11T07:09:09.315Z,52.50
2017-04-11T07:10:08.142Z,53.50
2017-04-11T07:11:06.524Z,53.50
2017-04-11T07:12:04.937Z,53.80
2017-04-11T07:13:03.412Z,53.50
2017-04-11T07:14:01.801Z,54.10
2017-04-11T07:15:00.183Z,55.10
2017-04-11T07:15:58.652Z,54.90
2017-04-11T07:16:57.035Z,55.00
2017-04-11T07:17:55.484Z,55.30
2017-04-11T07:18:53.972Z,54.90
2017-04-11T07:19:52.387Z,54.20
2017-04-11T07:20:50.825Z,53.80
2017-04-11T07:21:49.244Z,53.50
2017-04-11T07:22:47.686Z,53.50
2017-04-11T07:23:46.400Z,53.00
2017-04-11T07:24:44.811Z,53.20
2017-04-11T07:25:43.250Z,53.40
2017-04-11T07:26:41.642Z,52.40
2017-04-11T07:27:40.048Z,51.60
2017-04-11T07:28:38.457Z,51.80
2017-04-11T07:29:36.949Z,51.80
2017-04-11T07:30:35.389Z,51.00
2017-04-11T07:31:33.815Z,50.90
2017-04-11T07:32:32.375Z,50.80
2017-04-11T07:33:30.782Z,50.00
2017-04-11T07:34:29.488Z,49.00
2017-04-11T07:35:27.937Z,48.90
2017-04-11T07:36:26.331Z,49.10
2017-04-11T07:37:25.507Z,49.70
2017-04-11T07:38:23.919Z,48.80
2017-04-11T07:39:22.329Z,48.60
2017-04-11T07:40:22.690Z,48.80
2017-04-11T07:41:21.127Z,48.20
2017-04-11T07:42:19.559Z,48.40
2017-04-11T07:43:19.947Z,47.90
2017-04-11T07:44:18.381Z,48.10
2017-04-11T07:45:16.768Z,48.00
2017-04-11T07:46:15.154Z,48.60
2017-04-11T07:47:13.587Z,49.60
2017-04-11T07:48:12.696Z,50.80
2017-04-11T07:49:11.102Z,51.70
2017-04-11T07:50:10.245Z,51.20
2017-04-11T07:51:08.650Z,50.60
2017-04-11T07:52:07.065Z,50.70
2017-04-11T07:53:05.471Z,50.90
2017-04-11T07:54:03.953Z,50.90
2017-04-11T07:55:02.339Z,49.70
2017-04-11T07:56:01.689Z,48.70
2017-04-11T07:57:00.145Z,48.20
2017-04-11T07:57:58.552Z,46.80
2017-04-11T07:58:56.990Z,46.30
2017-04-11T07:59:56.155Z,45.70
2017-04-11T08:00:54.541Z,44.80
2017-04-11T08:01:52.927Z,44.50
2017-04-11T08:02:51.690Z,45.90
2017-04-11T08:03:50.189Z,45.80
2017-04-11T08:04:48.591Z,44.80
2017-04-11T08:05:47.040Z,44.90
2017-04-11T08:06:45.510Z,45.30
2017-04-11T08:07:43.957Z,44.50
2017-04-11T08:08:43.166Z,43.00
2017-04-11T08:09:41.707Z,43.10
2017-04-11T08:10:40.225Z,44.20
2017-04-11T08:11:38.602Z,44.30
2017-04-11T08:12:37.015Z,44.10
2017-04-11T08:13:35.404Z,43.10
2017-04-11T08:14:33.863Z,41.70
2017-04-11T08:15:32.651Z,40.80
2017-04-11T08:16:31.067Z,39.90
2017-04-11T08:17:29.450Z,39.40
2017-04-11T08:18:28.125Z,40.20
2017-04-11T08:19:26.538Z,40.90
2017-04-11T08:20:25.369Z,40.80
2017-04-11T08:21:24.189Z,39.90
2017-04-11T08:22:22.616Z,39.10
2017-04-11T08:23:21.018Z,38.60
2017-04-11T08:24:20.222Z,37.70
2017-04-11T08:25:18.650Z,40.80
2017-04-11T08:26:17.073Z,41.20
2017-04-11T08:27:16.307Z,39.60
2017-04-11T08:28:14.762Z,40.20
2017-04-11T08:29:13.169Z,39.90
2017-04-11T08:30:11.554Z,40.40
2017-04-11T08:31:09.951Z,39.60
2017-04-11T08:32:09.183Z,40.60
2017-04-11T08:33:07.655Z,43.40
2017-04-11T08:34:06.064Z,44.20
2017-04-11T08:35:04.456Z,44.00
2017-04-11T08:36:02.886Z,44.40
2017-04-11T08:37:01.322Z,44.90
2017-04-11T08:37:59.697Z,45.70
2017-04-11T08:38:58.238Z,45.70
2017-04-11T08:39:56.979Z,44.10
2017-04-11T08:40:55.409Z,42.80
2017-04-11T08:41:53.828Z,41.90
2017-04-11T08:42:52.265Z,42.10
2017-04-11T08:43:52.909Z,41.70
2017-04-11T08:44:51.352Z,41.00
2017-04-11T08:45:49.776Z,39.90
2017-04-11T08:46:48.927Z,38.80
2017-04-11T08:47:47.935Z,38.10
2017-04-11T08:48:46.311Z,37.90
2017-04-11T08:49:45.438Z,37.70
2017-04-11T08:50:43.899Z,37.50
2017-04-11T08:51:42.336Z,37.20
2017-04-11T08:52:42.251Z,37.60
2017-04-11T08:53:41.419Z,37.20
2017-04-11T08:54:41.898Z,36.80
2017-04-11T08:55:40.944Z,37.30
2017-04-11T08:56:39.855Z,37.50
2017-04-11T08:57:38.905Z,37.50
2017-04-11T08:58:37.339Z,38.50
2017-04-11T08:59:36.606Z,37.40
2017-04-11T09:00:36.130Z,37.50
2017-04-11T09:01:34.620Z,37.60
2017-04-11T09:02:34.007Z,38.10
2017-04-11T09:03:32.407Z,37.80
2017-04-11T09:04:32.289Z,37.70
2017-04-11T09:05:31.478Z,37.70
2017-04-11T09:06:31.222Z,38.20
2017-04-11T09:07:29.625Z,38.20
2017-04-11T09:08:28.050Z,39.20
2017-04-11T09:09:26.432Z,38.10
2017-04-11T09:10:24.876Z,38.50
2017-04-11T09:11:23.396Z,38.90
2017-04-11T09:12:21.812Z,38.80
2017-04-11T09:13:20.616Z,39.40
2017-04-11T09:14:19.082Z,39.40
2017-04-11T09:15:17.481Z,39.40
2017-04-11T09:16:15.905Z,39.50
2017-04-11T09:17:14.346Z,39.20
2017-04-11T09:18:12.821Z,39.20
2017-04-11T09:19:12.018Z,40.00
2017-04-11T09:20:10.475Z,39.80
2017-04-11T09:21:08.879Z,39.80
2017-04-11T09:22:07.273Z,39.80
2017-04-11T09:23:06.469Z,39.50
2017-04-11T09:24:04.861Z,39.40
2017-04-11T09:25:04.329Z,39.50
2017-04-11T09:26:02.762Z,39.80
2017-04-11T09:27:01.159Z,40.20
2017-04-11T09:27:59.557Z,40.00
2017-04-11T09:28:57.950Z,40.10
2017-04-11T09:29:56.368Z,40.00
2017-04-11T09:30:54.788Z,40.40
2017-04-11T09:31:54.842Z,40.80
2017-04-11T09:32:55.059Z,39.80
2017-04-11T09:33:53.490Z,38.50
2017-04-11T09:34:51.942Z,38.10
2017-04-11T09:35:50.416Z,37.30
2017-04-11T09:36:49.926Z,36.80
2017-04-11T09:37:48.323Z,36.10
2017-04-11T09:38:47.103Z,35.00
2017-04-11T09:39:45.528Z,35.00
2017-04-11T09:40:45.448Z,34.80
2017-04-11T09:41:43.871Z,34.70
2017-04-11T09:42:42.281Z,35.90
2017-04-11T09:43:40.989Z,35.20
2017-04-11T09:44:39.372Z,35.10
2017-04-11T09:45:39.011Z,35.20
2017-04-11T09:46:38.113Z,34.80
2017-04-11T09:47:36.529Z,33.90
2017-04-11T09:48:34.956Z,32.50
2017-04-11T09:49:34.138Z,32.90
2017-04-11T09:50:32.548Z,32.40
2017-04-11T09:51:31.030Z,31.90
2017-04-11T09:52:30.007Z,31.70
2017-04-11T09:53:28.385Z,31.10
2017-04-11T09:54:26.819Z,31.20
2017-04-11T09:55:25.314Z,31.70
2017-04-11T09:56:23.718Z,32.80
2017-04-11T09:57:22.218Z,32.70
2017-04-11T09:58:20.658Z,33.10
2017-04-11T09:59:19.102Z,33.30
2017-04-11T10:00:17.812Z,33.40
2017-04-11T10:01:16.964Z,33.30
2017-04-11T10:02:15.422Z,33.40
2017-04-11T10:03:13.947Z,33.50
2017-04-11T10:04:13.450Z,33.70
2017-04-11T10:05:11.922Z,33.30
2017-04-11T10:06:10.351Z,32.70
2017-04-11T10:07:08.783Z,32.60
2017-04-11T10:08:07.247Z,32.20
2017-04-11T10:09:06.537Z,32.40
2017-04-11T10:10:04.980Z,32.00
2017-04-11T10:11:05.161Z,31.60
2017-04-11T10:12:03.627Z,32.20
2017-04-11T10:13:02.354Z,33.10
2017-04-11T10:14:00.768Z,32.60
2017-04-11T10:14:59.652Z,31.70
2017-04-11T10:15:58.148Z,32.20
2017-04-11T10:16:56.602Z,30.80
2017-04-11T10:17:55.073Z,33.00
2017-04-11T10:18:53.567Z,32.60
2017-04-11T10:19:52.802Z,33.30
2017-04-11T10:20:51.319Z,33.10
2017-04-11T10:21:49.725Z,33.80
2017-04-11T10:22:48.162Z,33.50
2017-04-11T10:23:47.348Z,36.30
2017-04-11T10:24:45.776Z,36.70
2017-04-11T10:25:44.246Z,37.50
2017-04-11T10:26:42.804Z,37.60
2017-04-11T10:27:41.571Z,36.70
2017-04-11T10:28:39.997Z,36.40
2017-04-11T10:29:38.408Z,36.20
2017-04-11T10:30:36.857Z,36.40
2017-04-11T10:31:36.003Z,36.50
2017-04-11T10:32:35.267Z,36.20
2017-04-11T10:33:33.673Z,35.60
2017-04-11T10:34:32.097Z,35.20
2017-04-11T10:35:30.535Z,35.20
2017-04-11T10:36:30.115Z,35.80
2017-04-11T10:37:28.538Z,35.50
2017-04-11T10:38:26.975Z,35.00
2017-04-11T10:39:25.655Z,34.50
2017-04-11T10:40:24.820Z,34.20
2017-04-11T10:41:23.256Z,33.50
2017-04-11T10:42:21.667Z,33.50
2017-04-11T10:43:20.127Z,33.40
2017-04-11T10:44:18.565Z,32.70
2017-04-11T10:45:16.992Z,33.00
2017-04-11T10:46:16.158Z,33.10
2017-04-11T10:47:14.580Z,32.30
2017-04-11T10:48:13.008Z,31.90
2017-04-11T10:49:12.204Z,31.60
2017-04-11T10:50:10.582Z,30.80
2017-04-11T10:51:09.762Z,30.20
2017-04-11T10:52:08.949Z,29.90
2017-04-11T10:53:08.476Z,29.50
2017-04-11T10:54:06.893Z,29.30
2017-04-11T10:55:05.351Z,29.20
2017-04-11T10:56:03.894Z,28.90
2017-04-11T10:57:02.353Z,28.60
2017-04-11T10:58:01.075Z,28.70
2017-04-11T10:58:59.489Z,28.10
2017-04-11T10:59:57.923Z,28.20
2017-04-11T11:00:56.338Z,28.30
2017-04-11T11:01:54.751Z,28.00
2017-04-11T11:02:53.188Z,28.20
2017-04-11T11:03:51.624Z,28.10
2017-04-11T11:04:51.710Z,27.80
2017-04-11T11:05:50.131Z,27.80
2017-04-11T11:06:48.638Z,28.00
2017-04-11T11:07:47.464Z,28.30
2017-04-11T11:08:45.889Z,27.50
2017-04-11T11:09:44.300Z,27.50
2017-04-11T11:10:42.822Z,28.90
2017-04-11T11:11:41.228Z,30.20
2017-04-11T11:12:40.391Z,29.30
2017-04-11T11:13:38.798Z,29.30
2017-04-11T11:14:36.470Z,29.30
2017-04-11T11:15:34.857Z,30.70
2017-04-11T11:16:33.309Z,33.20
2017-04-11T11:17:32.043Z,32.70
2017-04-11T11:18:30.483Z,33.10
2017-04-11T11:19:28.908Z,32.10
2017-04-11T11:20:27.529Z,32.10
2017-04-11T11:21:26.007Z,32.60
2017-04-11T11:22:24.502Z,32.40
2017-04-11T11:23:22.921Z,32.20
2017-04-11T11:24:21.328Z,31.80
2017-04-11T11:25:19.817Z,33.30
2017-04-11T11:26:18.202Z,33.20
2017-04-11T11:27:16.648Z,33.10
2017-04-11T11:28:15.115Z,32.70
2017-04-11T11:29:13.864Z,33.00
2017-04-11T11:30:12.263Z,34.00
2017-04-11T11:31:10.664Z,35.40
2017-04-11T11:32:09.054Z,35.20
2017-04-11T11:33:07.495Z,35.40
2017-04-11T11:34:05.956Z,35.00
2017-04-11T11:35:05.209Z,35.30
2017-04-11T11:36:03.612Z,34.90
2017-04-11T11:37:02.311Z,34.30
2017-04-11T11:38:00.764Z,34.10
2017-04-11T11:38:59.206Z,34.40
2017-04-11T11:39:57.652Z,34.40
2017-04-11T11:40:56.070Z,33.80
2017-04-11T11:41:54.476Z,34.50
2017-04-11T11:42:52.856Z,34.10
2017-04-11T11:43:51.252Z,34.10
2017-04-11T11:44:50.368Z,34.50
2017-04-11T11:45:48.770Z,34.90
2017-04-11T11:46:47.945Z,34.70
2017-04-11T11:47:46.470Z,35.20
2017-04-11T11:48:44.948Z,35.80
2017-04-11T11:49:44.148Z,35.50
2017-04-11T11:50:42.588Z,36.10
2017-04-11T11:51:40.982Z,37.40
2017-04-11T11:52:40.751Z,37.60
2017-04-11T11:53:39.222Z,37.50
2017-04-11T11:54:37.655Z,38.10
2017-04-11T11:55:36.671Z,38.20
2017-04-11T11:56:35.469Z,38.00
2017-04-11T11:57:33.892Z,38.00
2017-04-11T11:58:32.956Z,37.50
2017-04-11T11:59:32.400Z,37.10
2017-04-11T12:00:30.859Z,35.90
2017-04-11T12:01:29.262Z,35.30
2017-04-11T12:02:27.801Z,34.70
2017-04-11T12:03:26.275Z,34.50
2017-04-11T12:04:24.666Z,34.00
2017-04-11T12:05:23.081Z,34.00
2017-04-11T12:06:21.518Z,33.70
2017-04-11T12:07:19.929Z,34.20
2017-04-11T12:08:18.352Z,34.70
2017-04-11T12:09:16.766Z,34.20
2017-04-11T12:10:15.167Z,33.30
2017-04-11T12:11:13.884Z,33.10
2017-04-11T12:12:13.064Z,32.10
2017-04-11T12:13:11.459Z,32.30
2017-04-11T12:14:09.955Z,32.60
2017-04-11T12:15:08.347Z,32.80
2017-04-11T12:16:06.768Z,32.30
2017-04-11T12:17:05.189Z,33.40
2017-04-11T12:18:03.675Z,33.30
2017-04-11T12:19:02.033Z,33.50
2017-04-11T12:20:00.525Z,33.30
2017-04-11T12:20:58.940Z,33.80
2017-04-11T12:21:57.388Z,34.00
2017-04-11T12:22:55.859Z,33.70
2017-04-11T12:23:54.272Z,32.30
2017-04-11T12:24:52.649Z,32.60
2017-04-11T12:25:51.149Z,33.20
2017-04-11T12:26:50.097Z,33.40
2017-04-11T12:27:48.491Z,34.50
2017-04-11T12:28:47.659Z,34.50
2017-04-11T12:29:46.057Z,35.30
2017-04-11T12:30:45.250Z,35.60
2017-04-11T12:31:43.733Z,35.40
2017-04-11T12:32:42.145Z,34.70
2017-04-11T12:33:40.552Z,34.40
2017-04-11T12:34:41.960Z,34.60
2017-04-11T12:35:40.372Z,34.90
2017-04-11T12:36:38.788Z,35.10
2017-04-11T12:37:37.195Z,35.00
2017-04-11T12:38:35.602Z,34.70